createdAt,value
2018-06-21T00:01:43.879Z,101128.49
2018-06-21T00:04:13.892Z,101136.81
2018-06-21T00:06:43.375Z,101133.06
2018-06-21T00:09:13.223Z,101133.50
2018-06-21T00:11:42.622Z,101132.59
2018-06-21T00:14:12.167Z,101127.47
2018-06-21T00:16:41.909Z,101125.63
2018-06-21T00:19:11.956Z,101127.63
2018-06-21T00:21:41.409Z,101114.42
2018-06-21T00:24:11.046Z,101114.84
2018-06-21T00:26:41.093Z,101111.37
2018-06-21T00:29:10.582Z,101100.84
2018-06-21T00:31:40.074Z,101102.48
2018-06-21T00:34:09.545Z,101087.73
2018-06-21T00:36:39.089Z,101089.33
2018-06-21T00:39:09.969Z,101092.09
2018-06-21T00:41:39.570Z,101091.67
2018-06-21T00:44:09.041Z,101081.45
2018-06-21T00:46:38.546Z,101080.56
2018-06-21T00:49:08.058Z,101073.70
2018-06-21T00:51:37.658Z,101069.20
2018-06-21T00:54:07.826Z,101068.66
2018-06-21T00:56:37.758Z,101061.49
2018-06-21T00:59:07.659Z,101066.18
2018-06-21T01:01:37.349Z,101066.07
2018-06-21T01:04:06.816Z,101066.61
2018-06-21T01:06:36.568Z,101066.18
2018-06-21T01:09:08.437Z,101055.97
2018-06-21T01:11:38.016Z,101057.94
2018-06-21T01:14:07.516Z,101052.95
2018-06-21T01:16:37.050Z,101044.82
2018-06-21T01:19:06.522Z,101042.38
2018-06-21T01:21:35.953Z,101033.92
2018-06-21T01:24:05.820Z,101030.98
2018-06-21T01:26:35.274Z,101033.94
2018-06-21T01:29:04.909Z,101029.48
2018-06-21T01:31:34.669Z,101019.75
2018-06-21T01:34:04.506Z,101016.92
2018-06-21T01:36:33.974Z,101012.59
2018-06-21T01:39:03.869Z,101010.86
2018-06-21T01:41:33.061Z,101001.64
2018-06-21T01:44:02.506Z,100995.75
2018-06-21T01:46:32.422Z,100998.77
2018-06-21T01:49:02.277Z,100999.66
2018-06-21T01:51:31.848Z,100992.87
2018-06-21T01:54:01.400Z,100994.29
2018-06-21T01:56:31.957Z,100992.26
2018-06-21T01:59:01.443Z,100991.36
2018-06-21T02:01:31.932Z,100985.53
2018-06-21T02:04:01.364Z,100983.66
2018-06-21T02:06:31.177Z,100982.55
2018-06-21T02:09:01.097Z,100975.80
2018-06-21T02:11:31.651Z,100975.73
2018-06-21T02:14:01.118Z,100971.52
2018-06-21T02:16:34.313Z,100966.05
2018-06-21T02:19:05.366Z,100961.44
2018-06-21T02:21:36.483Z,100958.89
2018-06-21T02:24:06.529Z,100951.33
2018-06-21T02:26:36.486Z,100946.83
2018-06-21T02:29:06.385Z,100947.92
2018-06-21T02:31:35.857Z,100938.89
2018-06-21T02:34:06.665Z,100932.75
2018-06-21T02:36:37.374Z,100926.73
2018-06-21T02:39:08.933Z,100919.58
2018-06-21T02:41:39.020Z,100918.80
2018-06-21T02:44:09.062Z,100918.80
2018-06-21T02:46:39.642Z,100910.83
2018-06-21T02:49:09.375Z,100915.88
2018-06-21T02:51:40.027Z,100913.71
2018-06-21T02:54:09.777Z,100904.23
2018-06-21T02:56:40.002Z,100894.80
2018-06-21T02:59:11.597Z,100894.33
2018-06-21T03:01:41.595Z,100892.83
2018-06-21T03:04:11.076Z,100897.10
2018-06-21T03:06:40.833Z,100897.92
2018-06-21T03:09:11.159Z,100897.44
2018-06-21T03:11:40.649Z,100892.13
2018-06-21T03:14:12.052Z,100892.45
2018-06-21T03:16:41.669Z,100881.16
2018-06-21T03:19:11.408Z,100882.98
2018-06-21T03:21:42.678Z,100893.34
2018-06-21T03:24:12.183Z,100893.40
2018-06-21T03:26:42.238Z,100888.66
2018-06-21T03:29:11.698Z,100896.77
2018-06-21T03:31:41.158Z,100903.13
2018-06-21T03:34:10.788Z,100897.34
2018-06-21T03:36:40.319Z,100896.59
2018-06-21T03:39:11.253Z,100900.78
2018-06-21T03:41:42.710Z,100903.41
2018-06-21T03:44:13.869Z,100898.45
2018-06-21T03:46:43.314Z,100904.31
2018-06-21T03:49:13.625Z,100904.36
2018-06-21T03:51:43.192Z,100906.06
2018-06-21T03:54:13.458Z,100909.84
2018-06-21T03:56:44.373Z,100911.94
2018-06-21T03:59:13.914Z,100909.04
2018-06-21T04:01:43.616Z,100910.72
2018-06-21T04:04:13.606Z,100914.14
2018-06-21T04:06:43.049Z,100884.77
2018-06-21T04:09:12.535Z,100876.41
2018-06-21T04:11:42.309Z,100865.36
2018-06-21T04:14:13.818Z,100880.91
2018-06-21T04:16:43.901Z,100875.53
2018-06-21T04:19:13.445Z,100883.16
2018-06-21T04:21:42.599Z,100879.52
2018-06-21T04:24:12.131Z,100869.78
2018-06-21T04:26:41.609Z,100871.28
2018-06-21T04:29:11.347Z,100874.59
2018-06-21T04:31:40.813Z,100872.70
2018-06-21T04:34:10.266Z,100863.00
2018-06-21T04:36:39.849Z,100856.36
2018-06-21T04:39:10.001Z,100863.00
2018-06-21T04:41:39.918Z,100855.10
2018-06-21T04:44:09.691Z,100853.43
2018-06-21T04:46:39.232Z,100857.71
2018-06-21T04:49:08.763Z,100848.59
2018-06-21T04:51:38.224Z,100850.27
2018-06-21T04:54:07.806Z,100841.08
2018-06-21T04:56:37.307Z,100848.20
2018-06-21T04:59:06.831Z,100857.71
2018-06-21T05:01:36.373Z,100851.94
2018-06-21T05:04:05.960Z,100853.13
2018-06-21T05:06:36.277Z,100856.55
2018-06-21T05:09:10.110Z,100854.15
2018-06-21T05:11:39.506Z,100860.48
2018-06-21T05:14:09.420Z,100872.29
2018-06-21T05:16:38.865Z,100881.16
2018-06-21T05:19:08.025Z,100857.09
2018-06-21T05:21:37.506Z,100873.45
2018-06-21T05:24:07.544Z,100887.29
2018-06-21T05:26:37.032Z,100894.87
2018-06-21T05:29:06.756Z,100899.09
2018-06-21T05:31:36.226Z,100900.36
2018-06-21T05:34:05.770Z,100892.44
2018-06-21T05:36:36.395Z,100881.59
2018-06-21T05:39:09.412Z,100883.26
2018-06-21T05:41:38.920Z,100875.72
2018-06-21T05:44:09.005Z,100874.88
2018-06-21T05:46:38.709Z,100879.97
2018-06-21T05:49:09.563Z,100881.63
2018-06-21T05:51:39.143Z,100876.60
2018-06-21T05:54:09.239Z,100892.11
2018-06-21T05:56:39.144Z,100896.71
2018-06-21T05:59:10.120Z,100897.14
2018-06-21T06:01:39.670Z,100897.95
2018-06-21T06:04:09.134Z,100901.34
2018-06-21T06:06:38.700Z,100896.30
2018-06-21T06:09:12.620Z,100891.29
2018-06-21T06:11:42.404Z,100878.77
2018-06-21T06:14:11.931Z,100881.25
2018-06-21T06:16:41.552Z,100875.40
2018-06-21T06:19:11.293Z,100864.95
2018-06-21T06:21:41.049Z,100864.08
2018-06-21T06:24:12.097Z,100851.94
2018-06-21T06:26:42.213Z,100849.84
2018-06-21T06:29:12.132Z,100859.47
2018-06-21T06:31:41.731Z,100857.40
2018-06-21T06:34:11.883Z,100847.88
2018-06-21T06:36:41.209Z,100840.36
2018-06-21T06:39:17.961Z,100855.81
2018-06-21T06:41:50.332Z,100854.62
2018-06-21T06:44:20.059Z,100855.48
2018-06-21T06:46:50.238Z,100870.92
2018-06-21T06:49:21.049Z,100871.39
2018-06-21T06:51:50.549Z,100859.66
2018-06-21T06:54:20.094Z,100853.34
2018-06-21T06:56:49.739Z,100851.24
2018-06-21T06:59:19.770Z,100870.00
2018-06-21T07:01:49.406Z,100889.66
2018-06-21T07:04:18.900Z,100899.72
2018-06-21T07:06:48.419Z,100901.80
2018-06-21T07:09:17.940Z,100892.58
2018-06-21T07:11:48.869Z,100880.91
2018-06-21T07:14:19.055Z,100877.52
2018-06-21T07:16:48.519Z,100870.80
2018-06-21T07:19:18.337Z,100879.12
2018-06-21T07:21:47.804Z,100874.45
2018-06-21T07:24:17.216Z,100857.34
2018-06-21T07:26:46.845Z,100848.13
2018-06-21T07:29:16.367Z,100851.36
2018-06-21T07:31:45.795Z,100830.00
2018-06-21T07:34:15.099Z,100825.80
2018-06-21T07:36:44.529Z,100826.20
2018-06-21T07:39:14.040Z,100825.39
2018-06-21T07:41:43.769Z,100824.95
2018-06-21T07:44:13.172Z,100841.66
2018-06-21T07:46:42.639Z,100855.45
2018-06-21T07:49:13.704Z,100855.46
2018-06-21T07:51:49.169Z,100863.34
2018-06-21T07:54:19.237Z,100862.98
2018-06-21T07:56:49.037Z,100857.53
2018-06-21T07:59:18.690Z,100852.53
2018-06-21T08:01:48.295Z,100857.16
2018-06-21T08:04:18.620Z,100855.45
2018-06-21T08:06:48.146Z,100835.47
2018-06-21T08:09:18.885Z,100838.41
2018-06-21T08:11:48.794Z,100847.14
2018-06-21T08:14:18.412Z,100836.31
2018-06-21T08:16:48.205Z,100842.17
2018-06-21T08:19:18.494Z,100837.57
2018-06-21T08:21:48.946Z,100842.57
2018-06-21T08:24:18.906Z,100844.70
2018-06-21T08:26:49.673Z,100841.39
2018-06-21T08:29:19.421Z,100832.21
2018-06-21T08:31:48.960Z,100833.39
2018-06-21T08:34:18.562Z,100835.02
2018-06-21T08:36:48.159Z,100833.87
2018-06-21T08:39:19.894Z,100833.97
2018-06-21T08:41:51.556Z,100835.60
2018-06-21T08:44:21.030Z,100844.77
2018-06-21T08:46:51.800Z,100846.10
2018-06-21T08:49:21.302Z,100842.76
2018-06-21T08:51:52.075Z,100836.84
2018-06-21T08:54:22.798Z,100842.19
2018-06-21T08:56:52.329Z,100840.44
2018-06-21T08:59:21.888Z,100850.12
2018-06-21T09:01:51.289Z,100846.34
2018-06-21T09:04:21.173Z,100837.52
2018-06-21T09:06:50.412Z,100843.33
2018-06-21T09:09:20.629Z,100838.69
2018-06-21T09:11:50.127Z,100838.56
2018-06-21T09:14:19.549Z,100836.96
2018-06-21T09:16:51.671Z,100829.31
2018-06-21T09:19:21.349Z,100825.09
2018-06-21T09:21:51.188Z,100826.63
2018-06-21T09:24:20.649Z,100824.48
2018-06-21T09:26:50.285Z,100824.95
2018-06-21T09:29:19.765Z,100821.64
2018-06-21T09:31:49.317Z,100826.77
2018-06-21T09:34:18.781Z,100823.00
2018-06-21T09:36:49.209Z,100824.09
2018-06-21T09:39:23.786Z,100824.17
2018-06-21T09:41:58.228Z,100824.23
2018-06-21T09:44:32.451Z,100825.43
2018-06-21T09:47:07.216Z,100817.45
2018-06-21T09:49:36.938Z,100831.71
2018-06-21T09:52:07.124Z,100836.28
2018-06-21T09:54:37.792Z,100842.59
2018-06-21T09:57:07.779Z,100836.08
2018-06-21T09:59:37.706Z,100830.01
2018-06-21T10:02:08.261Z,100839.61
2018-06-21T10:04:37.748Z,100837.96
2018-06-21T10:07:07.309Z,100828.81
2018-06-21T10:09:36.754Z,100846.80
2018-06-21T10:12:06.599Z,100835.86
2018-06-21T10:14:36.179Z,100910.76
2018-06-21T10:17:08.665Z,100944.95
2018-06-21T10:19:40.763Z,100937.91
2018-06-21T10:22:10.187Z,100933.96
2018-06-21T10:24:39.548Z,100951.25
2018-06-21T10:27:09.147Z,100934.83
2018-06-21T10:29:38.973Z,100945.65
2018-06-21T10:32:08.492Z,100952.78
2018-06-21T10:34:38.096Z,100936.13
2018-06-21T10:37:07.571Z,100937.45
2018-06-21T10:39:37.052Z,100933.30
2018-06-21T10:42:06.706Z,100926.19
2018-06-21T10:44:36.220Z,100930.40
2018-06-21T10:47:05.732Z,100927.16
2018-06-21T10:49:35.198Z,100918.48
2018-06-21T10:52:04.743Z,100913.51
2018-06-21T10:54:34.210Z,100906.99
2018-06-21T10:57:03.636Z,100922.44
2018-06-21T10:59:33.151Z,100912.06
2018-06-21T11:02:03.320Z,100912.61
2018-06-21T11:04:32.881Z,100902.17
2018-06-21T11:07:02.446Z,100894.23
2018-06-21T11:09:32.120Z,100889.62
2018-06-21T11:12:02.177Z,100911.77
2018-06-21T11:14:42.566Z,100914.71
2018-06-21T11:17:12.062Z,100927.62
2018-06-21T11:19:41.480Z,100929.75
2018-06-21T11:22:11.600Z,100924.73
2018-06-21T11:24:41.080Z,100931.43
2018-06-21T11:27:10.956Z,100956.79
2018-06-21T11:29:40.432Z,100975.98
2018-06-21T11:32:09.932Z,100979.22
2018-06-21T11:34:39.409Z,100972.37
2018-06-21T11:37:08.938Z,100954.72
2018-06-21T11:39:38.458Z,100952.23
2018-06-21T11:42:07.983Z,100969.66
2018-06-21T11:44:37.434Z,100971.02
2018-06-21T11:47:07.782Z,100983.64
2018-06-21T11:49:38.197Z,100978.33
2018-06-21T11:52:09.392Z,100967.97
2018-06-21T11:54:39.786Z,100968.91
2018-06-21T11:57:09.310Z,100963.63
2018-06-21T11:59:39.333Z,100955.77
2018-06-21T12:02:10.673Z,100951.63
2018-06-21T12:04:40.293Z,100953.70
2018-06-21T12:07:11.471Z,100959.54
2018-06-21T12:09:42.842Z,100993.30
2018-06-21T12:12:13.111Z,100962.05
2018-06-21T12:14:44.278Z,100960.41
2018-06-21T12:17:13.552Z,100965.41
2018-06-21T12:19:42.982Z,100967.10
2018-06-21T12:22:12.458Z,100996.69
2018-06-21T12:24:41.950Z,100984.88
2018-06-21T12:27:11.398Z,100979.61
2018-06-21T12:29:41.047Z,100971.73
2018-06-21T12:32:10.566Z,100985.34
2018-06-21T12:34:40.073Z,101006.72
2018-06-21T12:37:09.523Z,101006.06
2018-06-21T12:39:39.107Z,101008.74
2018-06-21T12:42:08.625Z,101029.74
2018-06-21T12:44:38.823Z,101018.02
2018-06-21T12:47:08.408Z,101026.39
2018-06-21T12:49:37.927Z,101035.56
2018-06-21T12:52:07.761Z,101043.92
2018-06-21T12:54:37.246Z,101038.92
2018-06-21T12:57:07.931Z,101061.42
2018-06-21T12:59:38.066Z,101078.96
2018-06-21T13:02:07.540Z,101077.76
2018-06-21T13:04:37.538Z,101077.75
2018-06-21T13:07:08.248Z,101074.41
2018-06-21T13:10:54.197Z,101086.09
2018-06-21T13:13:27.282Z,101086.82
2018-06-21T13:15:57.190Z,101112.84
2018-06-21T13:18:27.590Z,101114.81
2018-06-21T13:20:57.114Z,101124.70
2018-06-21T13:23:26.647Z,101138.41
2018-06-21T13:25:56.744Z,101131.64
2018-06-21T13:28:26.272Z,101151.48
2018-06-21T13:30:55.830Z,101150.81
2018-06-21T13:33:25.393Z,101154.81
2018-06-21T13:35:54.814Z,101172.05
2018-06-21T13:38:24.162Z,101171.34
2018-06-21T13:40:53.908Z,101171.17
2018-06-21T13:43:23.561Z,101184.09
2018-06-21T13:45:52.975Z,101187.84
2018-06-21T13:48:22.724Z,101191.41
2018-06-21T13:50:52.422Z,101192.23
2018-06-21T13:53:22.212Z,101188.91
2018-06-21T13:55:52.191Z,101196.00
2018-06-21T13:58:23.675Z,101200.62
2018-06-21T14:00:54.467Z,101193.91
2018-06-21T14:03:24.220Z,101183.58
2018-06-21T14:05:54.158Z,101193.13
2018-06-21T14:08:24.199Z,101203.52
2018-06-21T14:10:53.287Z,101186.53
2018-06-21T14:13:24.883Z,101195.05
2018-06-21T14:15:54.164Z,101186.94
2018-06-21T14:18:23.811Z,101193.16
2018-06-21T14:20:55.982Z,101205.58
2018-06-21T14:23:25.384Z,101208.39
2018-06-21T14:25:55.978Z,101207.28
2018-06-21T14:28:25.465Z,101220.67
2018-06-21T14:30:55.797Z,101233.22
2018-06-21T14:33:25.282Z,101231.51
2018-06-21T14:35:54.831Z,101240.16
2018-06-21T14:38:24.242Z,101224.41
2018-06-21T14:40:53.807Z,101232.59
2018-06-21T14:43:23.524Z,101241.61
2018-06-21T14:45:53.026Z,101261.77
2018-06-21T14:48:22.796Z,101264.68
2018-06-21T14:50:52.353Z,101269.12
2018-06-21T14:53:22.169Z,101296.38
2018-06-21T14:55:51.660Z,101322.45
2018-06-21T14:58:21.238Z,101330.15
2018-06-21T15:00:50.868Z,101329.34
2018-06-21T15:03:20.453Z,101334.16
2018-06-21T15:05:49.992Z,101316.64
2018-06-21T15:08:20.030Z,101311.74
2018-06-21T15:10:49.642Z,101309.91
2018-06-21T15:13:19.073Z,101314.29
2018-06-21T15:15:48.252Z,101299.28
2018-06-21T15:18:17.832Z,101294.27
2018-06-21T15:20:47.506Z,101282.08
2018-06-21T15:23:17.448Z,101280.82
2018-06-21T15:25:47.037Z,101269.22
2018-06-21T15:28:17.055Z,101273.53
2018-06-21T15:30:47.014Z,101276.41
2018-06-21T15:33:17.302Z,101273.17
2018-06-21T15:35:46.829Z,101272.31
2018-06-21T15:38:19.380Z,101277.83
2018-06-21T15:40:49.108Z,101281.28
2018-06-21T15:43:18.966Z,101292.55
2018-06-21T15:45:48.428Z,101293.29
2018-06-21T15:48:17.958Z,101281.25
2018-06-21T15:50:47.763Z,101287.52
2018-06-21T15:53:18.666Z,101293.05
2018-06-21T15:55:47.924Z,101295.94
2018-06-21T15:58:18.090Z,101306.28
2018-06-21T16:00:48.585Z,101304.80
2018-06-21T16:03:18.164Z,101307.98
2018-06-21T16:05:47.690Z,101309.45
2018-06-21T16:08:17.324Z,101304.78
2018-06-21T16:10:46.793Z,101313.41
2018-06-21T16:13:17.403Z,101312.56
2018-06-21T16:15:48.565Z,101330.92
2018-06-21T16:18:18.006Z,101330.11
2018-06-21T16:20:47.436Z,101323.03
2018-06-21T16:23:17.001Z,101335.16
2018-06-21T16:25:46.386Z,101332.63
2018-06-21T16:28:15.833Z,101338.11
2018-06-21T16:30:45.322Z,101330.83
2018-06-21T16:33:14.853Z,101328.21
2018-06-21T16:35:44.470Z,101331.21
2018-06-21T16:38:13.737Z,101330.16
2018-06-21T16:40:43.172Z,101323.56
2018-06-21T16:43:12.754Z,101318.97
2018-06-21T16:45:42.153Z,101306.41
2018-06-21T16:48:11.639Z,101319.39
2018-06-21T16:50:41.129Z,101320.87
2018-06-21T16:53:10.569Z,101327.72
2018-06-21T16:55:40.389Z,101316.45
2018-06-21T16:58:09.840Z,101324.78
2018-06-21T17:00:39.664Z,101333.20
2018-06-21T17:03:10.701Z,101332.75
2018-06-21T17:05:40.360Z,101327.70
2018-06-21T17:08:09.862Z,101335.62
2018-06-21T17:10:39.329Z,101344.91
2018-06-21T17:13:08.836Z,101346.14
2018-06-21T17:15:38.678Z,101348.98
2018-06-21T17:18:08.801Z,101353.50
2018-06-21T17:20:38.209Z,101357.69
2018-06-21T17:23:07.638Z,101348.17
2018-06-21T17:25:37.872Z,101354.02
2018-06-21T17:28:07.488Z,101339.80
2018-06-21T17:30:36.965Z,101332.70
2018-06-21T17:33:06.728Z,101326.48
2018-06-21T17:35:36.265Z,101351.51
2018-06-21T17:38:05.771Z,101345.27
2018-06-21T17:40:35.198Z,101348.16
2018-06-21T17:43:04.690Z,101346.50
2018-06-21T17:45:34.153Z,101352.80
2018-06-21T17:48:03.981Z,101347.76
2018-06-21T17:50:33.481Z,101353.13
2018-06-21T17:53:02.900Z,101353.10
2018-06-21T17:55:32.413Z,101358.91
2018-06-21T17:58:01.962Z,101354.72
2018-06-21T18:00:31.450Z,101356.78
2018-06-21T18:03:01.066Z,101356.74
2018-06-21T18:05:30.530Z,101368.50
2018-06-21T18:08:00.437Z,101366.78
2018-06-21T18:10:29.901Z,101365.54
2018-06-21T18:12:59.301Z,101379.03
2018-06-21T18:15:28.774Z,101373.16
2018-06-21T18:17:58.266Z,101375.56
2018-06-21T18:20:27.749Z,101367.15
2018-06-21T18:22:57.394Z,101368.51
2018-06-21T18:25:26.839Z,101376.47
2018-06-21T18:27:57.033Z,101380.61
2018-06-21T18:30:26.500Z,101378.45
2018-06-21T18:32:56.204Z,101381.23
2018-06-21T18:35:25.697Z,101387.91
2018-06-21T18:37:55.119Z,101377.39
2018-06-21T18:40:24.649Z,101374.05
2018-06-21T18:42:54.239Z,101381.11
2018-06-21T18:45:23.871Z,101372.29
2018-06-21T18:47:53.456Z,101378.51
2018-06-21T18:50:22.983Z,101369.26
2018-06-21T18:52:52.772Z,101369.67
2018-06-21T18:55:22.286Z,101369.16
2018-06-21T18:57:52.927Z,101378.33
2018-06-21T19:00:23.472Z,101375.37
2018-06-21T19:02:52.972Z,101378.22
2018-06-21T19:05:22.435Z,101380.27
2018-06-21T19:07:58.752Z,101405.72
2018-06-21T19:10:33.568Z,101421.89
2018-06-21T19:13:03.149Z,101412.06
2018-06-21T19:15:33.148Z,101404.86
2018-06-21T19:18:02.354Z,101409.23
2018-06-21T19:20:32.156Z,101408.33
2018-06-21T19:23:01.644Z,101403.64
2018-06-21T19:25:31.135Z,101400.28
2018-06-21T19:28:01.554Z,101409.83
2018-06-21T19:30:31.114Z,101398.48
2018-06-21T19:33:01.026Z,101403.83
2018-06-21T19:35:31.933Z,101406.31
2018-06-21T19:38:02.438Z,101396.75
2018-06-21T19:40:31.949Z,101397.28
2018-06-21T19:43:01.460Z,101397.98
2018-06-21T19:45:30.560Z,101395.73
2018-06-21T19:48:00.144Z,101393.19
2018-06-21T19:50:29.764Z,101392.34
2018-06-21T19:52:59.254Z,101395.34
2018-06-21T19:55:28.825Z,101397.88
2018-06-21T19:57:59.280Z,101398.27
2018-06-21T20:00:29.354Z,101387.09
2018-06-21T20:03:00.861Z,101384.25
2018-06-21T20:05:31.233Z,101382.20
2018-06-21T20:08:00.829Z,101397.34
2018-06-21T20:10:32.694Z,101393.95
2018-06-21T20:13:04.352Z,101402.92
2018-06-21T20:15:55.761Z,101404.45
2018-06-21T20:18:25.660Z,101401.96
2018-06-21T20:20:56.432Z,101394.09
2018-06-21T20:23:27.331Z,101395.43
2018-06-21T20:25:57.508Z,101399.13
2018-06-21T20:28:27.429Z,101402.43
2018-06-21T20:30:56.842Z,101396.58
2018-06-21T20:33:26.728Z,101394.59
2018-06-21T20:35:58.632Z,101392.45
2018-06-21T20:38:28.354Z,101389.89
2018-06-21T20:40:57.813Z,101386.55
2018-06-21T20:43:27.239Z,101384.45
2018-06-21T20:45:56.511Z,101383.94
2018-06-21T20:48:26.642Z,101383.95
2018-06-21T20:50:57.137Z,101380.10
2018-06-21T20:53:26.683Z,101377.98
2018-06-21T20:55:56.396Z,101377.05
2018-06-21T20:58:28.144Z,101377.09
2018-06-21T21:00:58.519Z,101376.94
2018-06-21T21:03:28.759Z,101370.80
2018-06-21T21:05:58.226Z,101369.50
2018-06-21T21:08:28.347Z,101369.85
2018-06-21T21:11:00.338Z,101368.31
2018-06-21T21:13:30.892Z,101365.53
2018-06-21T21:16:00.392Z,101373.06
2018-06-21T21:18:30.319Z,101369.72
2018-06-21T21:20:59.914Z,101375.57
2018-06-21T21:23:29.288Z,101376.91
2018-06-21T21:25:58.475Z,101383.70
2018-06-21T21:28:28.315Z,101384.61
2018-06-21T21:30:58.445Z,101405.38
2018-06-21T21:33:28.242Z,101393.08
2018-06-21T21:35:57.690Z,101387.94
2018-06-21T21:38:27.945Z,101385.28
2018-06-21T21:40:58.854Z,101382.19
2018-06-21T21:43:28.906Z,101378.35
2018-06-21T21:46:00.053Z,101377.44
2018-06-21T21:48:29.910Z,101375.78
2018-06-21T21:50:59.439Z,101379.86
2018-06-21T21:53:28.923Z,101379.14
2018-06-21T21:55:58.969Z,101383.66
2018-06-21T21:58:28.420Z,101395.00
2018-06-21T22:00:59.861Z,101390.42
2018-06-21T22:03:29.736Z,101388.89
2018-06-21T22:06:03.007Z,101381.75
2018-06-21T22:08:32.390Z,101362.08
2018-06-21T22:11:01.970Z,101359.02
2018-06-21T22:13:32.372Z,101358.16
2018-06-21T22:16:02.026Z,101357.81
2018-06-21T22:18:32.448Z,101363.93
2018-06-21T22:21:02.257Z,101367.67
2018-06-21T22:23:31.389Z,101381.25
2018-06-21T22:26:00.911Z,101377.08
2018-06-21T22:28:30.366Z,101373.39
2018-06-21T22:30:59.626Z,101372.22
2018-06-21T22:33:29.449Z,101355.95
2018-06-21T22:35:58.810Z,101348.34
2018-06-21T22:38:28.249Z,101352.99
2018-06-21T22:40:57.752Z,101346.83
2018-06-21T22:43:27.237Z,101345.13
2018-06-21T22:45:56.862Z,101341.05
2018-06-21T22:48:26.729Z,101338.68
2018-06-21T22:50:56.235Z,101330.41
2018-06-21T22:53:26.199Z,101322.55
2018-06-21T22:55:55.735Z,101321.25
2018-06-21T22:58:25.793Z,101315.91
2018-06-21T23:00:55.262Z,101311.27
2018-06-21T23:03:24.678Z,101307.66
2018-06-21T23:05:54.470Z,101310.61
2018-06-21T23:08:24.221Z,101311.05
2018-06-21T23:10:53.914Z,101317.33
2018-06-21T23:13:24.024Z,101321.92
2018-06-21T23:15:55.298Z,101320.34
2018-06-21T23:18:35.742Z,101329.07
2018-06-21T23:21:06.463Z,101319.55
2018-06-21T23:23:36.424Z,101309.69
2018-06-21T23:26:05.934Z,101317.41
2018-06-21T23:28:35.444Z,101309.62
2018-06-21T23:31:05.099Z,101315.86
2018-06-21T23:33:34.598Z,101313.73
2018-06-21T23:36:04.051Z,101316.55
2018-06-21T23:38:33.446Z,101312.47
2018-06-21T23:41:03.031Z,101304.59
2018-06-21T23:43:32.446Z,101309.53
2018-06-21T23:46:01.881Z,101309.92
2018-06-21T23:48:31.303Z,101292.54
2018-06-21T23:51:00.784Z,101292.07
2018-06-21T23:53:32.009Z,101297.02
2018-06-21T23:56:01.470Z,101281.30
2018-06-21T23:58:31.224Z,101295.77
